createdAt,value
2023-01-07T00:01:24.407Z,99077.66
2023-01-07T00:03:52.297Z,99077.66
2023-01-07T00:06:21.870Z,99069.91
2023-01-07T00:08:50.193Z,99068.97
2023-01-07T00:11:20.199Z,99076.06
2023-01-07T00:13:49.475Z,99071.59
2023-01-07T00:16:18.351Z,99068.88
2023-01-07T00:18:45.871Z,99070.63
2023-01-07T00:21:15.123Z,99056.66
2023-01-07T00:23:43.314Z,99064.50
2023-01-07T00:26:19.492Z,99062.03
2023-01-07T00:28:48.572Z,99060.25
2023-01-07T00:31:21.126Z,99057.72
2023-01-07T00:33:54.691Z,99050.84
2023-01-07T00:36:23.599Z,99053.41
2023-01-07T00:39:07.485Z,99049.75
2023-01-07T00:41:34.535Z,99051.59
2023-01-07T00:44:01.218Z,99049.06
2023-01-07T00:46:27.844Z,99050.84
2023-01-07T00:48:54.500Z,99042.25
2023-01-07T00:51:21.100Z,99046.72
2023-01-07T00:53:48.009Z,99044.09
2023-01-07T00:56:16.303Z,99043.13
2023-01-07T00:58:43.069Z,99037.00
2023-01-07T01:01:10.947Z,99035.09
2023-01-07T01:03:38.433Z,99030.78
2023-01-07T01:06:12.518Z,99030.94
2023-01-07T01:08:42.469Z,99018.81
2023-01-07T01:11:10.620Z,99018.81
2023-01-07T01:13:38.538Z,99018.81
2023-01-07T01:16:13.879Z,99012.50
2023-01-07T01:18:40.908Z,99019.53
2023-01-07T01:21:11.032Z,99017.84
2023-01-07T01:23:38.161Z,99017.91
2023-01-07T01:26:13.743Z,98999.78
2023-01-07T01:28:40.788Z,98996.44
2023-01-07T01:31:08.440Z,98986.25
2023-01-07T01:33:35.303Z,98993.25
2023-01-07T01:36:08.095Z,98986.25
2023-01-07T01:38:34.880Z,98988.06
2023-01-07T01:41:01.733Z,98996.72
2023-01-07T01:43:37.085Z,98994.09
2023-01-07T01:46:11.018Z,98991.72
2023-01-07T01:48:40.043Z,98988.31
2023-01-07T01:51:09.731Z,98989.16
2023-01-07T01:53:37.073Z,98993.47
2023-01-07T01:56:24.188Z,98992.63
2023-01-07T01:59:14.487Z,98991.78
2023-01-07T02:01:41.172Z,98987.25
2023-01-07T02:04:16.271Z,98987.16
2023-01-07T02:07:03.858Z,98995.16
2023-01-07T02:09:30.859Z,98989.94
2023-01-07T02:12:18.805Z,98989.94
2023-01-07T02:15:03.568Z,98981.22
2023-01-07T02:17:52.033Z,98977.75
2023-01-07T02:20:36.835Z,98972.66
2023-01-07T02:23:28.015Z,98976.19
2023-01-07T02:26:34.037Z,98970.19
2023-01-07T02:29:12.941Z,98967.41
2023-01-07T02:32:17.806Z,98962.38
2023-01-07T02:35:03.817Z,98965.00
2023-01-07T02:38:04.297Z,98963.16
2023-01-07T02:40:43.892Z,98964.94
2023-01-07T02:43:31.245Z,98966.66
2023-01-07T02:46:22.174Z,98964.78
2023-01-07T02:48:48.988Z,98958.84
2023-01-07T02:51:15.549Z,98956.16
2023-01-07T02:53:45.608Z,98955.25
2023-01-07T02:56:27.523Z,98953.59
2023-01-07T02:59:35.734Z,98951.84
2023-01-07T03:02:25.142Z,98945.69
2023-01-07T03:05:21.837Z,98942.16
2023-01-07T03:08:07.067Z,98936.03
2023-01-07T03:10:51.427Z,98936.91
2023-01-07T03:13:22.981Z,98933.38
2023-01-07T03:16:11.098Z,98935.94
2023-01-07T03:18:47.035Z,98930.81
2023-01-07T03:21:16.939Z,98928.34
2023-01-07T03:23:54.100Z,98926.63
2023-01-07T03:26:25.420Z,98920.69
2023-01-07T03:28:53.192Z,98915.38
2023-01-07T03:31:22.315Z,98913.69
2023-01-07T03:33:59.892Z,98908.47
2023-01-07T03:36:33.058Z,98905.06
2023-01-07T03:39:01.648Z,98898.03
2023-01-07T03:41:46.772Z,98900.75
2023-01-07T03:44:13.396Z,98898.97
2023-01-07T03:46:40.331Z,98887.66
2023-01-07T03:49:06.927Z,98893.03
2023-01-07T03:51:33.533Z,98893.81
2023-01-07T03:54:00.119Z,98884.25
2023-01-07T03:56:26.899Z,98885.09
2023-01-07T03:58:53.529Z,98880.88
2023-01-07T04:01:20.271Z,98877.44
2023-01-07T04:03:46.972Z,98882.69
2023-01-07T04:06:13.603Z,98876.53
2023-01-07T04:08:40.177Z,98880.88
2023-01-07T04:11:06.765Z,98866.97
2023-01-07T04:13:33.357Z,98864.44
2023-01-07T04:15:59.939Z,98860.28
2023-01-07T04:18:26.548Z,98859.25
2023-01-07T04:20:53.139Z,98858.44
2023-01-07T04:23:19.862Z,98854.19
2023-01-07T04:25:47.453Z,98860.19
2023-01-07T04:28:14.075Z,98850.56
2023-01-07T04:30:40.740Z,98848.94
2023-01-07T04:33:07.756Z,98832.47
2023-01-07T04:35:34.855Z,98838.53
2023-01-07T04:38:01.430Z,98835.84
2023-01-07T04:40:28.190Z,98826.25
2023-01-07T04:42:54.783Z,98830.56
2023-01-07T04:45:21.326Z,98822.69
2023-01-07T04:47:48.039Z,98825.38
2023-01-07T04:50:14.956Z,98819.31
2023-01-07T04:52:41.513Z,98814.91
2023-01-07T04:55:08.812Z,98814.91
2023-01-07T04:57:35.339Z,98815.75
2023-01-07T05:00:01.882Z,98815.75
2023-01-07T05:02:28.517Z,98811.38
2023-01-07T05:04:55.108Z,98808.84
2023-01-07T05:07:21.672Z,98802.72
2023-01-07T05:09:48.221Z,98788.78
2023-01-07T05:12:14.854Z,98794.88
2023-01-07T05:14:41.503Z,98792.25
2023-01-07T05:17:08.210Z,98790.50
2023-01-07T05:19:34.775Z,98790.50
2023-01-07T05:22:01.363Z,98784.25
2023-01-07T05:24:28.080Z,98789.50
2023-01-07T05:26:54.746Z,98793.81
2023-01-07T05:29:21.391Z,98790.25
2023-01-07T05:31:48.064Z,98778.19
2023-01-07T05:34:14.665Z,98777.31
2023-01-07T05:36:41.262Z,98776.41
2023-01-07T05:39:07.760Z,98775.56
2023-01-07T05:41:34.494Z,98773.00
2023-01-07T05:44:01.123Z,98767.84
2023-01-07T05:46:27.732Z,98765.38
2023-01-07T05:48:54.412Z,98765.53
2023-01-07T05:51:21.334Z,98765.53
2023-01-07T05:53:47.858Z,98768.09
2023-01-07T05:56:14.415Z,98765.47
2023-01-07T05:58:40.989Z,98760.34
2023-01-07T06:01:07.529Z,98767.38
2023-01-07T06:03:34.279Z,98762.28
2023-01-07T06:06:07.082Z,98756.34
2023-01-07T06:08:37.936Z,98753.66
2023-01-07T06:11:06.129Z,98752.03
2023-01-07T06:13:33.249Z,98746.94
2023-01-07T06:16:04.961Z,98745.16
2023-01-07T06:18:31.809Z,98737.25
2023-01-07T06:20:58.755Z,98745.09
2023-01-07T06:23:25.332Z,98732.00
2023-01-07T06:25:51.998Z,98742.63
2023-01-07T06:28:18.692Z,98732.38
2023-01-07T06:30:46.691Z,98737.47
2023-01-07T06:33:14.231Z,98736.53
2023-01-07T06:35:41.317Z,98727.84
2023-01-07T06:38:08.270Z,98719.09
2023-01-07T06:40:34.858Z,98720.84
2023-01-07T06:43:01.431Z,98717.59
2023-01-07T06:45:28.437Z,98717.53
2023-01-07T06:47:57.416Z,98710.59
2023-01-07T06:50:24.788Z,98708.81
2023-01-07T06:52:51.385Z,98708.97
2023-01-07T06:55:18.038Z,98703.59
2023-01-07T06:57:44.671Z,98697.44
2023-01-07T07:00:11.994Z,98701.59
2023-01-07T07:02:38.639Z,98706.91
2023-01-07T07:05:05.633Z,98696.34
2023-01-07T07:07:33.148Z,98697.28
2023-01-07T07:09:59.674Z,98687.84
2023-01-07T07:12:26.314Z,98687.88
2023-01-07T07:14:52.991Z,98690.56
2023-01-07T07:17:19.579Z,98687.03
2023-01-07T07:19:46.101Z,98687.88
2023-01-07T07:22:12.965Z,98686.25
2023-01-07T07:24:39.481Z,98684.66
2023-01-07T07:27:06.076Z,98677.63
2023-01-07T07:29:32.689Z,98677.56
2023-01-07T07:31:59.324Z,98671.56
2023-01-07T07:34:25.882Z,98669.78
2023-01-07T07:36:52.494Z,98671.72
2023-01-07T07:39:19.048Z,98664.88
2023-01-07T07:41:45.598Z,98667.47
2023-01-07T07:44:12.308Z,98663.78
2023-01-07T07:46:40.109Z,98661.88
2023-01-07T07:49:07.946Z,98661.09
2023-01-07T07:51:34.640Z,98667.94
2023-01-07T07:54:01.179Z,98656.50
2023-01-07T07:56:27.796Z,98660.09
2023-01-07T07:58:54.595Z,98661.78
2023-01-07T08:01:21.414Z,98658.13
2023-01-07T08:03:48.107Z,98653.81
2023-01-07T08:06:14.773Z,98649.50
2023-01-07T08:08:41.991Z,98646.78
2023-01-07T08:11:09.300Z,98643.09
2023-01-07T08:13:35.942Z,98637.94
2023-01-07T08:16:02.810Z,98636.25
2023-01-07T08:18:29.399Z,98641.50
2023-01-07T08:20:56.344Z,98626.56
2023-01-07T08:23:23.343Z,98632.63
2023-01-07T08:25:49.917Z,98628.16
2023-01-07T08:28:16.509Z,98623.72
2023-01-07T08:30:43.170Z,98624.63
2023-01-07T08:33:09.766Z,98627.09
2023-01-07T08:35:36.562Z,98624.31
2023-01-07T08:38:05.155Z,98619.78
2023-01-07T08:40:32.294Z,98616.25
2023-01-07T08:43:04.005Z,98615.31
2023-01-07T08:45:31.004Z,98602.06
2023-01-07T08:47:58.400Z,98605.38
2023-01-07T08:50:26.371Z,98601.06
2023-01-07T08:52:53.207Z,98592.97
2023-01-07T08:55:20.362Z,98584.88
2023-01-07T08:57:47.738Z,98583.78
2023-01-07T09:00:16.339Z,98575.09
2023-01-07T09:02:43.651Z,98574.16
2023-01-07T09:05:10.887Z,98572.25
2023-01-07T09:07:37.972Z,98568.69
2023-01-07T09:10:05.215Z,98575.63
2023-01-07T09:12:32.231Z,98575.47
2023-01-07T09:14:58.818Z,98565.16
2023-01-07T09:17:25.393Z,98568.53
2023-01-07T09:19:51.998Z,98565.81
2023-01-07T09:22:18.559Z,98560.44
2023-01-07T09:24:47.780Z,98562.19
2023-01-07T09:27:16.622Z,98555.09
2023-01-07T09:29:43.480Z,98551.56
2023-01-07T09:32:10.647Z,98555.03
2023-01-07T09:34:38.499Z,98552.31
2023-01-07T09:37:05.721Z,98551.25
2023-01-07T09:39:32.789Z,98547.78
2023-01-07T09:42:13.420Z,98541.53
2023-01-07T09:44:57.427Z,98551.06
2023-01-07T09:47:26.695Z,98546.53
2023-01-07T09:50:01.160Z,98541.28
2023-01-07T09:52:38.728Z,98543.06
2023-01-07T09:55:13.658Z,98537.97
2023-01-07T09:57:40.351Z,98533.44
2023-01-07T10:00:22.917Z,98533.56
2023-01-07T10:03:11.415Z,98534.94
2023-01-07T10:05:44.035Z,98534.84
2023-01-07T10:08:32.472Z,98529.59
2023-01-07T10:11:11.177Z,98527.75
2023-01-07T10:13:52.823Z,98532.09
2023-01-07T10:16:40.769Z,98523.38
2023-01-07T10:19:27.113Z,98518.88
2023-01-07T10:21:57.793Z,98513.56
2023-01-07T10:24:32.202Z,98511.72
2023-01-07T10:27:09.381Z,98503.84
2023-01-07T10:29:50.943Z,98505.44
2023-01-07T10:32:22.701Z,98499.28
2023-01-07T10:34:54.044Z,98493.88
2023-01-07T10:37:31.303Z,98488.63
2023-01-07T10:40:17.419Z,98484.97
2023-01-07T10:43:18.089Z,98483.03
2023-01-07T10:46:06.307Z,98488.88
2023-01-07T10:48:45.062Z,98478.31
2023-01-07T10:51:23.809Z,98469.44
2023-01-07T10:53:59.515Z,98477.88
2023-01-07T10:56:37.728Z,98463.91
2023-01-07T10:59:04.916Z,98469.84
2023-01-07T11:01:35.536Z,98457.59
2023-01-07T11:04:03.725Z,98457.47
2023-01-07T11:07:06.638Z,98451.31
2023-01-07T11:09:41.919Z,98444.28
2023-01-07T11:12:52.652Z,98443.19
2023-01-07T11:15:58.434Z,98440.63
2023-01-07T11:18:39.416Z,98429.41
2023-01-07T11:21:06.096Z,98435.50
2023-01-07T11:23:44.166Z,98423.56
2023-01-07T11:26:26.356Z,98428.63
2023-01-07T11:29:00.285Z,98417.22
2023-01-07T11:31:48.492Z,98422.66
2023-01-07T11:34:27.091Z,98401.31
2023-01-07T11:36:54.642Z,98397.59
2023-01-07T11:39:22.815Z,98402.66
2023-01-07T11:42:33.265Z,98391.78
2023-01-07T11:45:18.301Z,98390.53
2023-01-07T11:47:52.433Z,98382.19
2023-01-07T11:50:33.542Z,98368.03
2023-01-07T11:53:14.265Z,98368.78
2023-01-07T11:56:01.819Z,98364.31
2023-01-07T11:58:43.537Z,98364.13
2023-01-07T12:01:12.759Z,98357.00
2023-01-07T12:03:41.921Z,98355.31
2023-01-07T12:06:11.510Z,98348.84
2023-01-07T12:08:41.882Z,98346.03
2023-01-07T12:11:11.357Z,98355.03
2023-01-07T12:13:40.609Z,98347.25
2023-01-07T12:16:08.712Z,98346.41
2023-01-07T12:19:04.432Z,98343.50
2023-01-07T12:21:40.138Z,98332.94
2023-01-07T12:24:42.649Z,98324.84
2023-01-07T12:27:37.105Z,98321.22
2023-01-07T12:30:51.637Z,98322.16
2023-01-07T12:33:54.270Z,98317.72
2023-01-07T12:36:35.995Z,98320.91
2023-01-07T12:39:09.253Z,98319.06
2023-01-07T12:41:44.419Z,98304.81
2023-01-07T12:44:21.818Z,98307.44
2023-01-07T12:46:51.183Z,98305.53
2023-01-07T12:49:28.880Z,98307.22
2023-01-07T12:52:01.477Z,98292.22
2023-01-07T12:54:35.469Z,98288.19
2023-01-07T12:57:16.911Z,98286.97
2023-01-07T12:59:53.376Z,98281.81
2023-01-07T13:02:45.037Z,98280.22
2023-01-07T13:05:22.638Z,98292.09
2023-01-07T13:07:52.843Z,98275.22
2023-01-07T13:10:25.488Z,98275.38
2023-01-07T13:13:02.053Z,98269.84
2023-01-07T13:15:33.792Z,98268.63
2023-01-07T13:18:20.653Z,98264.84
2023-01-07T13:21:09.814Z,98262.41
2023-01-07T13:24:14.023Z,98275.22
2023-01-07T13:26:57.778Z,98268.91
2023-01-07T13:29:42.854Z,98266.69
2023-01-07T13:32:49.538Z,98266.03
2023-01-07T13:35:25.305Z,98254.88
2023-01-07T13:38:01.172Z,98245.22
2023-01-07T13:40:55.447Z,98250.94
2023-01-07T13:43:33.825Z,98242.94
2023-01-07T13:46:08.711Z,98247.56
2023-01-07T13:48:38.347Z,98233.69
2023-01-07T13:51:07.122Z,98239.88
2023-01-07T13:53:46.930Z,98238.50
2023-01-07T13:56:19.367Z,98236.41
2023-01-07T13:58:52.271Z,98230.75
2023-01-07T14:01:29.617Z,98222.81
2023-01-07T14:04:06.901Z,98228.81
2023-01-07T14:06:42.369Z,98222.59
2023-01-07T14:09:11.400Z,98226.53
2023-01-07T14:12:07.427Z,98226.84
2023-01-07T14:15:01.234Z,98236.75
2023-01-07T14:17:39.859Z,98224.13
2023-01-07T14:20:32.567Z,98232.00
2023-01-07T14:23:08.477Z,98237.78
2023-01-07T14:26:10.571Z,98228.91
2023-01-07T14:29:08.118Z,98235.31
2023-01-07T14:31:34.941Z,98233.38
2023-01-07T14:34:16.865Z,98230.94
2023-01-07T14:37:01.735Z,98235.47
2023-01-07T14:39:41.283Z,98239.56
2023-01-07T14:42:26.170Z,98227.44
2023-01-07T14:44:52.774Z,98231.56
2023-01-07T14:47:48.762Z,98230.75
2023-01-07T14:50:15.252Z,98234.00
2023-01-07T14:53:02.865Z,98223.84
2023-01-07T14:56:03.091Z,98223.84
2023-01-07T14:58:29.658Z,98221.44
2023-01-07T15:01:15.142Z,98217.41
2023-01-07T15:03:50.876Z,98208.50
2023-01-07T15:06:27.720Z,98205.16
2023-01-07T15:09:22.267Z,98203.84
2023-01-07T15:12:11.230Z,98191.88
2023-01-07T15:15:05.656Z,98194.56
2023-01-07T15:17:32.720Z,98185.81
2023-01-07T15:20:04.051Z,98193.97
2023-01-07T15:22:46.490Z,98188.69
2023-01-07T15:25:32.964Z,98186.66
2023-01-07T15:28:13.271Z,98177.59
2023-01-07T15:31:04.585Z,98177.88
2023-01-07T15:34:04.727Z,98168.91
2023-01-07T15:36:31.989Z,98169.59
2023-01-07T15:39:03.088Z,98166.50
2023-01-07T15:41:37.585Z,98166.91
2023-01-07T15:44:20.480Z,98162.22
2023-01-07T15:46:47.198Z,98160.75
2023-01-07T15:49:22.745Z,98144.00
2023-01-07T15:51:55.901Z,98143.34
2023-01-07T15:54:36.831Z,98142.81
2023-01-07T15:57:14.607Z,98138.97
2023-01-07T15:59:47.801Z,98137.66
2023-01-07T16:02:36.849Z,98132.88
2023-01-07T16:05:05.606Z,98132.31
2023-01-07T16:07:43.892Z,98128.97
2023-01-07T16:10:25.749Z,98125.69
2023-01-07T16:12:57.240Z,98131.84
2023-01-07T16:15:36.501Z,98128.69
2023-01-07T16:18:23.471Z,98138.59
2023-01-07T16:20:50.037Z,98137.75
2023-01-07T16:23:36.832Z,98144.31
2023-01-07T16:26:16.432Z,98140.25
2023-01-07T16:28:49.801Z,98139.78
2023-01-07T16:31:20.761Z,98140.16
2023-01-07T16:33:50.970Z,98139.38
2023-01-07T16:36:22.009Z,98149.97
2023-01-07T16:38:49.917Z,98135.00
2023-01-07T16:41:25.349Z,98136.88
2023-01-07T16:43:56.766Z,98130.78
2023-01-07T16:46:38.913Z,98137.81
2023-01-07T16:49:11.561Z,98132.75
2023-01-07T16:52:04.202Z,98130.47
2023-01-07T16:54:34.565Z,98127.97
2023-01-07T16:57:02.561Z,98122.06
2023-01-07T16:59:35.647Z,98123.38
2023-01-07T17:02:25.518Z,98117.34
2023-01-07T17:04:52.382Z,98129.50
2023-01-07T17:07:24.941Z,98124.63
2023-01-07T17:09:54.242Z,98116.78
2023-01-07T17:12:36.491Z,98119.84
2023-01-07T17:15:31.697Z,98114.63
2023-01-07T17:18:14.421Z,98119.28
2023-01-07T17:20:48.218Z,98121.22
2023-01-07T17:23:26.894Z,98121.41
2023-01-07T17:26:01.828Z,98122.34
2023-01-07T17:28:31.293Z,98124.09
2023-01-07T17:30:58.024Z,98122.34
2023-01-07T17:33:25.640Z,98125.03
2023-01-07T17:35:54.291Z,98127.38
2023-01-07T17:38:20.976Z,98118.72
2023-01-07T17:40:48.160Z,98113.47
2023-01-07T17:43:34.689Z,98109.00
2023-01-07T17:46:06.365Z,98112.44
2023-01-07T17:48:34.351Z,98107.22
2023-01-07T17:51:01.449Z,98100.09
2023-01-07T17:53:34.234Z,98094.88
2023-01-07T17:56:02.148Z,98099.28
2023-01-07T17:58:34.651Z,98097.69
2023-01-07T18:01:05.677Z,98097.59
2023-01-07T18:03:32.481Z,98083.78
2023-01-07T18:05:59.136Z,98087.38
2023-01-07T18:08:25.745Z,98086.72
2023-01-07T18:11:11.901Z,98083.16
2023-01-07T18:13:38.607Z,98077.19
2023-01-07T18:16:06.122Z,98071.94
2023-01-07T18:18:33.265Z,98065.03
2023-01-07T18:21:00.008Z,98060.66
2023-01-07T18:23:26.636Z,98066.72
2023-01-07T18:25:53.486Z,98074.75
2023-01-07T18:28:20.054Z,98079.81
2023-01-07T18:30:46.606Z,98080.72
2023-01-07T18:33:13.261Z,98071.38
2023-01-07T18:35:42.571Z,98068.09
2023-01-07T18:38:13.771Z,98076.63
2023-01-07T18:40:40.472Z,98067.16
2023-01-07T18:43:07.209Z,98067.75
2023-01-07T18:45:33.839Z,98067.75
2023-01-07T18:48:00.467Z,98056.94
2023-01-07T18:50:27.079Z,98060.28
2023-01-07T18:52:53.659Z,98048.91
2023-01-07T18:55:20.979Z,98043.47
2023-01-07T18:57:47.576Z,98049.31
2023-01-07T19:00:15.993Z,98044.72
2023-01-07T19:02:42.587Z,98051.38
2023-01-07T19:05:09.351Z,98053.91
2023-01-07T19:07:36.288Z,98053.22
2023-01-07T19:10:04.787Z,98053.97
2023-01-07T19:12:31.468Z,98057.53
2023-01-07T19:14:58.051Z,98057.44
2023-01-07T19:17:24.981Z,98052.41
2023-01-07T19:19:51.969Z,98053.63
2023-01-07T19:22:18.604Z,98048.38
2023-01-07T19:24:45.150Z,98054.66
2023-01-07T19:27:12.185Z,98055.41
2023-01-07T19:29:38.746Z,98052.41
2023-01-07T19:32:05.567Z,98052.34
2023-01-07T19:34:32.287Z,98063.63
2023-01-07T19:36:58.866Z,98060.09
2023-01-07T19:39:25.501Z,98059.06
2023-01-07T19:41:52.099Z,98069.34
2023-01-07T19:44:18.803Z,98075.16
2023-01-07T19:46:45.432Z,98073.47
2023-01-07T19:49:13.357Z,98076.94
2023-01-07T19:51:41.783Z,98075.25
2023-01-07T19:54:11.922Z,98079.56
2023-01-07T19:56:40.184Z,98076.06
2023-01-07T19:59:06.896Z,98073.31
2023-01-07T20:01:33.577Z,98072.38
2023-01-07T20:04:00.296Z,98070.75
2023-01-07T20:06:30.140Z,98058.41
2023-01-07T20:08:58.147Z,98059.06
2023-01-07T20:11:25.144Z,98052.03
2023-01-07T20:13:51.762Z,98051.97
2023-01-07T20:16:24.690Z,98046.72
2023-01-07T20:18:53.741Z,98044.03
2023-01-07T20:21:22.632Z,98042.22
2023-01-07T20:23:49.506Z,98037.84
2023-01-07T20:26:22.407Z,98053.66
2023-01-07T20:28:49.570Z,98056.34
2023-01-07T20:31:18.124Z,98059.91
2023-01-07T20:33:45.567Z,98058.06
2023-01-07T20:36:14.685Z,98048.41
2023-01-07T20:38:42.523Z,98053.66
2023-01-07T20:41:13.076Z,98046.72
2023-01-07T20:43:39.733Z,98066.94
2023-01-07T20:46:07.639Z,98056.34
2023-01-07T20:48:35.096Z,98054.59
2023-01-07T20:51:06.656Z,98050.19
2023-01-07T20:53:33.864Z,98052.03
2023-01-07T20:56:01.224Z,98047.75
2023-01-07T20:58:31.437Z,98035.50
2023-01-07T21:00:58.529Z,98035.50
2023-01-07T21:03:25.698Z,98032.88
2023-01-07T21:05:57.012Z,98032.97
2023-01-07T21:08:24.333Z,98033.16
2023-01-07T21:10:51.208Z,98043.56
2023-01-07T21:13:18.224Z,98046.06
2023-01-07T21:15:44.816Z,98042.69
2023-01-07T21:18:11.389Z,98038.31
2023-01-07T21:20:39.854Z,98037.56
2023-01-07T21:23:07.270Z,98048.88
2023-01-07T21:25:33.875Z,98046.19
2023-01-07T21:28:00.420Z,98041.00
2023-01-07T21:30:28.292Z,98037.25
2023-01-07T21:32:56.096Z,98031.00
2023-01-07T21:35:22.772Z,98044.09
2023-01-07T21:37:52.984Z,98043.25
2023-01-07T21:40:19.929Z,98037.09
2023-01-07T21:42:46.527Z,98037.25
2023-01-07T21:45:13.242Z,98045.25
2023-01-07T21:47:39.954Z,98044.56
2023-01-07T21:50:06.824Z,98034.09
2023-01-07T21:52:36.757Z,98035.22
2023-01-07T21:55:04.221Z,98033.44
2023-01-07T21:57:31.002Z,98029.59
2023-01-07T21:59:57.723Z,98039.53
2023-01-07T22:02:24.521Z,98034.28
2023-01-07T22:04:51.226Z,98022.03
2023-01-07T22:07:19.433Z,98023.63
2023-01-07T22:09:46.942Z,98032.41
2023-01-07T22:12:14.606Z,98024.47
2023-01-07T22:14:41.480Z,98027.94
2023-01-07T22:17:09.821Z,98026.25
2023-01-07T22:19:36.367Z,98018.59
2023-01-07T22:22:02.957Z,98022.03
2023-01-07T22:24:29.692Z,98020.25
2023-01-07T22:26:57.363Z,98012.28
2023-01-07T22:29:23.940Z,98016.03
2023-01-07T22:31:52.832Z,98012.41
2023-01-07T22:34:19.503Z,98010.53
2023-01-07T22:36:54.976Z,98008.84
2023-01-07T22:39:45.521Z,98000.91
2023-01-07T22:42:18.125Z,98008.75
2023-01-07T22:44:49.282Z,98006.91
2023-01-07T22:47:17.715Z,97996.41
2023-01-07T22:49:45.131Z,97997.91
2023-01-07T22:52:12.204Z,97995.38
2023-01-07T22:54:39.840Z,97997.16
2023-01-07T22:57:08.532Z,97985.94
2023-01-07T22:59:35.763Z,97996.50
2023-01-07T23:02:02.420Z,97988.56
2023-01-07T23:04:29.500Z,97986.69
2023-01-07T23:06:56.145Z,97977.22
2023-01-07T23:09:22.719Z,97985.53
2023-01-07T23:11:49.408Z,97975.94
2023-01-07T23:14:22.909Z,97968.91
2023-01-07T23:16:51.098Z,97969.63
2023-01-07T23:19:19.066Z,97960.84
2023-01-07T23:21:47.837Z,97954.13
2023-01-07T23:24:15.721Z,97948.13
2023-01-07T23:26:42.625Z,97947.84
2023-01-07T23:29:09.847Z,97940.81
2023-01-07T23:31:37.281Z,97945.03
2023-01-07T23:34:04.758Z,97944.00
2023-01-07T23:36:31.444Z,97929.97
2023-01-07T23:38:58.172Z,97933.72
2023-01-07T23:41:24.705Z,97925.75
2023-01-07T23:43:51.310Z,97920.81
2023-01-07T23:46:18.514Z,97914.91
2023-01-07T23:48:45.073Z,97914.00
2023-01-07T23:51:14.167Z,97908.66
2023-01-07T23:53:40.786Z,97908.78
2023-01-07T23:56:08.019Z,97909.59
2023-01-07T23:58:35.531Z,97909.59
